Aviation Digital Data Service (ADDS)

Output produced by METARs form (1531 UTC 31 July 2014)
found at http://aviationweather.gov/adds/metars/
 
KPHX 311434Z 3115/0112 11007KT P6SM SCT150 BKN250 
     FM311800 24006KT P6SM BKN150 BKN250 
     FM312100 26010G18KT P6SM BKN250 
     FM010900 12007KT P6SM BKN250